Time;durP1;ratioP1;P1;durP2;ratioP2;P2;SDS_P1;SDS_P2;PMS_P1;PMS_P2;Temp;Humidity;BMP_temperature;BMP_pressure;BME280_temperature;BME280_humidity;BME280_pressure;Samples;Min_cycle;Max_cycle;Signal;HPM_P1;HPM_P2
2021/01/30 00:00:45;;;;;;;23.75;12.63;;;;;;;-3.65;70.47;97771.08;1757619;81;21170;-68
2021/01/30 00:03:14;;;;;;;23.65;13.28;;;;;;;-3.69;70.73;97763.55;1757783;81;21151;-69
2021/01/30 00:05:41;;;;;;;27.60;14.80;;;;;;;-3.66;70.74;97769.86;1757958;81;21718;-68
2021/01/30 00:08:12;;;;;;;30.60;14.90;;;;;;;-3.65;70.84;97771.54;1758259;81;21678;-68
2021/01/30 00:10:39;;;;;;;30.20;15.13;;;;;;;-3.65;70.96;97774.13;1757982;81;21321;-68
2021/01/30 00:13:06;;;;;;;30.68;15.23;;;;;;;-3.61;70.95;97771.78;1757970;81;21227;-68
2021/01/30 00:15:34;;;;;;;29.95;14.73;;;;;;;-3.64;71.01;97788.26;1757718;81;21210;-68
2021/01/30 00:18:03;;;;;;;30.43;16.62;;;;;;;-3.57;71.00;97786.70;1757788;81;21155;-68
2021/01/30 00:20:34;;;;;;;27.90;14.23;;;;;;;-3.60;71.01;97795.42;1757835;81;21187;-68
2021/01/30 00:23:02;;;;;;;28.20;13.70;;;;;;;-3.54;70.88;97792.58;1758034;81;21162;-68
2021/01/30 00:25:32;;;;;;;24.07;12.20;;;;;;;-3.55;71.06;97796.06;1757947;81;21162;-68
2021/01/30 00:27:59;;;;;;;22.87;12.85;;;;;;;-3.48;70.95;97797.48;1758094;81;21163;-68
2021/01/30 00:30:29;;;;;;;28.40;14.68;;;;;;;-3.44;71.01;97802.03;1757928;81;21179;-68
2021/01/30 00:32:57;;;;;;;21.75;12.95;;;;;;;-3.40;71.00;97797.56;1758013;81;21187;-68
2021/01/30 00:35:28;;;;;;;29.57;14.75;;;;;;;-3.37;70.94;97797.45;1745804;81;21156;-68
2021/01/30 00:37:55;;;;;;;29.70;15.40;;;;;;;-3.38;71.03;97798.34;1738147;82;21584;-68
2021/01/30 00:40:22;;;;;;;27.70;14.65;;;;;;;-3.33;70.82;97789.47;1737876;82;21123;-68
2021/01/30 00:42:50;;;;;;;22.35;13.22;;;;;;;-3.35;70.81;97803.37;1737647;82;21608;-68
2021/01/30 00:45:22;;;;;;;23.15;12.30;;;;;;;-3.31;70.62;97798.00;1737939;82;21959;-68
2021/01/30 00:47:51;;;;;;;27.75;14.65;;;;;;;-3.34;70.55;97812.80;1737314;82;21286;-68
2021/01/30 00:50:19;;;;;;;25.43;13.35;;;;;;;-3.33;70.41;97816.61;1737098;82;21322;-67
2021/01/30 00:52:47;;;;;;;29.60;13.72;;;;;;;-3.36;70.36;97810.77;1737328;82;21684;-68
2021/01/30 00:55:20;;;;;;;32.75;15.32;;;;;;;-3.38;70.18;97806.10;1736908;82;21571;-67
2021/01/30 00:57:47;;;;;;;39.58;16.32;;;;;;;-3.44;70.07;97805.08;1737447;82;21325;-68
2021/01/30 01:00:22;;;;;;;33.50;15.90;;;;;;;-3.52;69.99;97813.17;1737374;82;21176;-67
2021/01/30 01:02:50;;;;;;;27.73;13.00;;;;;;;-3.56;69.97;97817.63;1737389;82;21556;-68
2021/01/30 01:05:19;;;;;;;22.70;12.35;;;;;;;-3.68;69.96;97811.73;1737209;82;21322;-68
2021/01/30 01:07:47;;;;;;;20.65;11.43;;;;;;;-3.73;70.00;97816.23;1737486;82;21175;-69
2021/01/30 01:10:20;;;;;;;20.40;10.55;;;;;;;-3.77;70.03;97826.31;1737429;82;21160;-70
2021/01/30 01:12:47;;;;;;;21.97;11.10;;;;;;;-3.85;70.02;97828.80;1737224;82;21294;-70
2021/01/30 01:15:17;;;;;;;19.48;11.38;;;;;;;-3.88;69.99;97831.95;1737411;82;21317;-69
2021/01/30 01:17:44;;;;;;;19.92;11.10;;;;;;;-3.98;70.04;97836.66;1737264;82;21278;-68
2021/01/30 01:20:15;;;;;;;20.68;11.43;;;;;;;-4.01;70.08;97836.80;1737401;82;21120;-68
2021/01/30 01:22:42;;;;;;;18.50;10.80;;;;;;;-4.08;70.19;97834.08;1737650;82;21548;-67
2021/01/30 01:25:10;;;;;;;19.02;10.35;;;;;;;-4.14;70.17;97824.39;1737331;82;21195;-67
2021/01/30 01:27:38;;;;;;;20.02;10.58;;;;;;;-4.17;70.22;97842.61;1737042;82;21358;-68
2021/01/30 01:30:08;;;;;;;24.52;11.10;;;;;;;-4.20;70.24;97848.34;1737487;82;21180;-68
2021/01/30 01:32:36;;;;;;;24.02;11.90;;;;;;;-4.22;70.16;97844.97;1737432;82;21343;-67
2021/01/30 01:35:05;;;;;;;23.07;11.88;;;;;;;-4.31;70.25;97846.18;1741437;82;21163;-67
2021/01/30 01:37:32;;;;;;;25.52;11.57;;;;;;;-4.33;70.24;97837.22;1749863;82;21196;-67
2021/01/30 01:40:00;;;;;;;21.25;10.72;;;;;;;-4.39;70.30;97844.37;1749984;82;21191;-67
2021/01/30 01:42:28;;;;;;;22.60;11.18;;;;;;;-4.40;70.25;97847.84;1749925;82;21163;-67
2021/01/30 01:44:55;;;;;;;24.65;11.90;;;;;;;-4.46;70.28;97845.91;1749795;82;21179;-68
2021/01/30 01:47:33;;;;;;;21.42;11.33;;;;;;;-4.51;70.32;97841.38;1749732;82;21179;-68
2021/01/30 01:50:05;;;;;;;20.02;10.68;;;;;;;-4.53;70.24;97843.17;1750040;82;21603;-67
2021/01/30 01:52:37;;;;;;;19.67;10.95;;;;;;;-4.58;70.19;97841.22;1723098;82;21297;-68
2021/01/30 01:55:12;;;;;;;18.48;10.50;;;;;;;-4.63;70.12;97848.30;1749960;82;21183;-67
2021/01/30 01:57:44;;;;;;;18.52;9.83;;;;;;;-4.67;70.08;97844.17;1749090;82;21160;-67
2021/01/30 02:00:12;;;;;;;20.68;10.58;;;;;;;-4.75;70.21;97843.64;1749679;82;21188;-66
2021/01/30 02:02:39;;;;;;;24.40;11.50;;;;;;;-4.79;70.16;97839.88;1722980;82;21186;-67
2021/01/30 02:05:11;;;;;;;19.98;10.93;;;;;;;-4.85;70.23;97843.15;1749949;82;21210;-66
2021/01/30 02:07:44;;;;;;;19.23;10.98;;;;;;;-4.87;70.10;97838.05;1749981;82;21159;-67
2021/01/30 02:10:19;;;;;;;25.08;11.60;;;;;;;-4.94;70.16;97834.02;1749935;82;21310;-66
2021/01/30 02:12:46;;;;;;;22.75;11.55;;;;;;;-5.00;70.25;97832.97;1750001;82;21151;-67
2021/01/30 02:15:16;;;;;;;23.18;12.13;;;;;;;-5.02;70.17;97819.31;1749621;82;21215;-66
2021/01/30 02:17:58;;;;;;;24.95;12.00;;;;;;;-5.10;70.27;97820.43;1750076;82;21301;-67
2021/01/30 02:21:07;;;;;;;26.40;12.98;;;;;;;-5.10;70.28;97829.45;1719175;82;21549;-67
2021/01/30 02:24:04;;;;;;;30.02;13.53;;;;;;;-5.16;70.20;97828.39;1749695;82;21175;-67
2021/01/30 02:27:09;;;;;;;23.32;11.00;;;;;;;-5.22;70.31;97817.48;1719999;82;21189;-68
2021/01/30 02:30:06;;;;;;;24.90;13.55;;;;;;;-5.29;70.40;97813.01;1749994;82;21147;-68
2021/01/30 02:33:05;;;;;;;26.57;13.38;;;;;;;-5.46;70.61;97820.05;1749700;82;21584;-68
2021/01/30 02:36:14;;;;;;;28.35;12.82;;;;;;;-5.53;70.94;97814.29;1749817;82;21343;-68
2021/01/30 02:38:46;;;;;;;20.95;11.97;;;;;;;-5.47;70.91;97819.69;1749038;82;21167;-68
2021/01/30 02:41:19;;;;;;;25.02;13.58;;;;;;;-5.45;70.89;97817.88;1749922;82;21274;-68
2021/01/30 02:43:47;;;;;;;21.37;11.93;;;;;;;-5.51;70.93;97813.80;1749655;82;21147;-68
2021/01/30 02:46:20;;;;;;;24.60;12.88;;;;;;;-5.54;70.92;97810.02;1749925;82;21207;-68
2021/01/30 02:48:50;;;;;;;27.60;13.80;;;;;;;-5.60;71.19;97810.24;1750132;82;21556;-68
2021/01/30 02:51:27;;;;;;;28.35;14.28;;;;;;;-5.55;71.03;97817.39;1749954;82;21191;-68
2021/01/30 02:53:56;;;;;;;39.58;15.45;;;;;;;-5.54;70.97;97807.91;1749690;82;21159;-68
2021/01/30 02:56:24;;;;;;;46.77;17.65;;;;;;;-5.53;70.68;97814.29;1749619;82;21159;-68
2021/01/30 02:59:09;;;;;;;46.80;18.10;;;;;;;-5.53;70.50;97809.14;1749726;82;21185;-68
2021/01/30 03:01:37;;;;;;;40.25;17.35;;;;;;;-5.59;70.47;97809.36;1750111;82;21159;-67
2021/01/30 03:04:15;;;;;;;30.70;13.20;;;;;;;-5.59;70.41;97822.23;1750186;82;21172;-67
2021/01/30 03:07:00;;;;;;;30.43;13.50;;;;;;;-5.65;70.45;97806.99;1749301;82;21362;-67
2021/01/30 03:09:45;;;;;;;26.20;12.58;;;;;;;-5.66;70.51;97804.05;1750000;82;22154;-67
2021/01/30 03:12:34;;;;;;;26.25;11.22;;;;;;;-5.73;70.61;97812.42;1749786;82;21187;-67
2021/01/30 03:15:14;;;;;;;22.00;11.10;;;;;;;-5.79;70.69;97807.05;1749744;82;21183;-67
2021/01/30 03:17:45;;;;;;;21.45;11.75;;;;;;;-5.80;70.64;97805.37;1749698;82;21302;-67
2021/01/30 03:20:13;;;;;;;18.40;10.98;;;;;;;-5.83;70.58;97804.20;1749795;82;21325;-67
2021/01/30 03:22:41;;;;;;;23.52;12.53;;;;;;;-5.87;70.80;97803.92;1749480;82;21198;-67
2021/01/30 03:25:09;;;;;;;20.97;11.35;;;;;;;-5.84;70.83;97802.52;1749548;82;21525;-67
2021/01/30 03:27:37;;;;;;;23.00;12.75;;;;;;;-5.86;70.84;97797.85;1749564;82;21187;-67
2021/01/30 03:30:12;;;;;;;22.37;12.33;;;;;;;-5.84;70.77;97794.79;1749588;82;21159;-67
2021/01/30 03:32:39;;;;;;;20.05;11.30;;;;;;;-5.85;70.87;97796.14;1749816;82;21548;-67
2021/01/30 03:35:10;;;;;;;22.75;13.60;;;;;;;-5.87;70.94;97794.91;1748502;82;21165;-68
2021/01/30 03:37:37;;;;;;;25.08;13.35;;;;;;;-5.94;71.08;97795.55;1737138;82;21188;-68
2021/01/30 03:40:06;;;;;;;23.57;12.37;;;;;;;-5.97;71.16;97793.52;1737273;82;21640;-68
2021/01/30 03:42:34;;;;;;;24.40;12.23;;;;;;;-5.96;71.03;97778.48;1737212;82;21192;-68
2021/01/30 03:45:05;;;;;;;27.93;14.40;;;;;;;-6.04;71.15;97786.50;1737159;82;21211;-68
2021/01/30 03:47:33;;;;;;;21.62;11.53;;;;;;;-5.99;71.17;97782.49;1737231;82;21188;-68
2021/01/30 03:50:01;;;;;;;18.07;11.08;;;;;;;-5.98;71.26;97795.27;1737053;82;21152;-68
2021/01/30 03:52:28;;;;;;;25.97;12.53;;;;;;;-6.02;70.93;97795.45;1737272;82;21164;-68
2021/01/30 03:54:55;;;;;;;29.18;13.20;;;;;;;-6.07;70.83;97796.06;1736966;82;21624;-67
2021/01/30 03:57:22;;;;;;;24.25;12.13;;;;;;;-6.11;70.74;97797.46;1737266;82;21711;-67
2021/01/30 03:59:50;;;;;;;18.37;10.68;;;;;;;-6.15;70.83;97798.47;1737053;82;21631;-67
2021/01/30 04:02:18;;;;;;;23.98;13.60;;;;;;;-6.23;70.78;97796.58;1737002;82;21175;-67
2021/01/30 04:04:46;;;;;;;24.77;11.90;;;;;;;-6.36;70.94;97806.91;1737044;82;21224;-67
2021/01/30 04:07:15;;;;;;;21.82;12.58;;;;;;;-6.44;71.41;97806.70;1737061;82;21294;-67
2021/01/30 04:09:42;;;;;;;25.80;11.70;;;;;;;-6.42;71.75;97801.50;1737312;82;21191;-67
2021/01/30 04:12:10;;;;;;;27.75;14.58;;;;;;;-6.36;71.87;97799.19;1737071;82;21128;-68
2021/01/30 04:14:38;;;;;;;25.65;14.03;;;;;;;-6.29;71.58;97791.21;1737180;82;21692;-67
2021/01/30 04:17:05;;;;;;;30.23;15.00;;;;;;;-6.27;71.86;97785.55;1737037;82;21183;-67
2021/01/30 04:19:33;;;;;;;31.62;14.93;;;;;;;-6.14;71.68;97787.28;1737027;82;21184;-68
2021/01/30 04:22:00;;;;;;;33.83;17.00;;;;;;;-6.11;71.84;97789.74;1737489;82;21286;-67
2021/01/30 04:24:27;;;;;;;35.43;17.55;;;;;;;-5.99;71.70;97796.19;1737521;82;21552;-66
2021/01/30 04:26:55;;;;;;;27.05;12.73;;;;;;;-5.94;71.77;97797.30;1737440;82;21632;-66
2021/01/30 04:29:22;;;;;;;26.10;14.33;;;;;;;-5.95;71.13;97798.19;1737234;82;21163;-66
2021/01/30 04:31:56;;;;;;;30.45;15.45;;;;;;;-6.08;71.17;97799.55;1737063;82;21321;-66
2021/01/30 04:34:24;;;;;;;30.37;16.00;;;;;;;-6.21;71.60;97804.24;1737284;82;21322;-66
2021/01/30 04:36:52;;;;;;;36.45;17.98;;;;;;;-6.23;71.81;97813.30;1745835;82;21219;-66
2021/01/30 04:39:19;;;;;;;33.18;17.15;;;;;;;-6.22;72.05;97808.56;1749762;82;21215;-67
2021/01/30 04:42:15;;;;;;;32.95;17.50;;;;;;;-6.20;71.96;97801.64;1750030;82;21187;-66
2021/01/30 04:45:05;;;;;;;32.45;16.82;;;;;;;-6.14;71.83;97804.02;1749244;82;21329;-67
2021/01/30 04:47:54;;;;;;;34.80;20.92;;;;;;;-6.06;71.79;97804.18;1801217;79;28041;-68
2021/01/30 04:50:45;;;;;;;35.30;19.48;;;;;;;-5.89;71.10;97810.84;1786008;80;21592;-69
2021/01/30 04:53:44;;;;;;;29.87;16.50;;;;;;;-5.68;70.21;97804.08;1773276;80;21202;-68
2021/01/30 04:56:29;;;;;;;29.95;16.62;;;;;;;-5.74;70.21;97808.62;1754659;82;21483;-68
2021/01/30 04:59:06;;;;;;;30.25;17.02;;;;;;;-5.78;70.48;97798.44;1730943;82;21166;-67
2021/01/30 05:02:15;;;;;;;31.48;17.10;;;;;;;-5.90;70.85;97793.72;1725031;83;21186;-67
2021/01/30 05:04:45;;;;;;;38.83;19.70;;;;;;;-6.06;71.18;97797.31;1724859;83;21162;-67
2021/01/30 05:07:33;;;;;;;35.92;18.60;;;;;;;-6.06;71.53;97795.17;1701416;82;21118;-67
2021/01/30 05:10:37;;;;;;;38.58;18.77;;;;;;;-5.94;70.93;97801.16;1928566;74;22903;-67
2021/01/30 05:13:22;;;;;;;44.35;22.00;;;;;;;-5.97;70.79;97789.66;1886494;75;21294;-67
2021/01/30 05:15:57;;;;;;;40.95;20.70;;;;;;;-5.92;70.95;97801.92;1891115;75;21142;-66
2021/01/30 05:18:32;;;;;;;40.73;20.27;;;;;;;-5.96;70.61;97798.64;1898621;75;21116;-66
2021/01/30 05:21:17;;;;;;;39.00;19.42;;;;;;;-5.97;70.76;97795.67;1813871;78;21175;-66
2021/01/30 05:23:50;;;;;;;;;;;;;;;-6.02;71.17;97804.46;1820032;78;21163;-67
2021/01/30 05:26:44;;;;;;;38.55;18.62;;;;;;;-6.05;71.28;97805.41;1804858;79;20480;-67
2021/01/30 05:29:17;;;;;;;;;;;;;;;-6.01;71.22;97812.16;1806702;79;21188;-67
2021/01/30 05:32:08;;;;;;;31.82;14.90;;;;;;;-6.02;71.25;97813.47;1875117;76;20514;-67
2021/01/30 05:35:00;;;;;;;33.42;16.60;;;;;;;-6.02;71.48;97821.19;1875587;76;21107;-67
2021/01/30 05:37:41;;;;;;;32.48;16.40;;;;;;;-6.03;71.88;97810.52;1797855;76;21249;-68
2021/01/30 05:40:29;;;;;;;35.98;17.77;;;;;;;-6.05;71.90;97817.45;1874249;76;21142;-66
2021/01/30 05:43:19;;;;;;;38.02;17.35;;;;;;;-6.04;71.91;97803.69;1779978;79;23109;-68
2021/01/30 05:45:56;;;;;;;30.02;15.20;;;;;;;-6.06;72.11;97819.19;1750467;82;21162;-66
2021/01/30 05:48:39;;;;;;;29.63;15.95;;;;;;;-6.05;72.00;97822.59;1753364;82;21128;-66
2021/01/30 05:51:37;;;;;;;35.52;18.85;;;;;;;-6.04;71.49;97820.42;1723726;82;21155;-66
2021/01/30 05:54:04;;;;;;;51.23;24.32;;;;;;;-6.08;71.46;97833.83;1726135;82;21183;-66
2021/01/30 05:56:40;;;;;;;59.08;24.70;;;;;;;-6.12;71.51;97833.09;1711715;83;21744;-66
2021/01/30 05:59:15;;;;;;;63.60;29.85;;;;;;;-6.10;71.59;97838.17;1705600;84;21194;-66
2021/01/30 06:01:42;;;;;;;70.57;31.90;;;;;;;-6.13;71.82;97830.58;1705278;84;21299;-66
2021/01/30 06:04:11;;;;;;;83.52;31.37;;;;;;;-6.12;71.91;97834.84;1683875;85;21166;-66
2021/01/30 06:06:52;;;;;;;79.22;32.05;;;;;;;-6.13;72.06;97849.42;1683775;85;21356;-66
2021/01/30 06:09:39;;;;;;;57.20;27.82;;;;;;;-6.14;72.17;97840.04;1656630;85;21639;-66
2021/01/30 06:12:32;;;;;;;49.65;23.38;;;;;;;-6.10;72.09;97842.90;1684125;85;21222;-66
2021/01/30 06:15:13;;;;;;;38.15;19.87;;;;;;;-6.06;72.26;97841.06;1683874;85;21182;-66
2021/01/30 06:17:40;;;;;;;37.28;21.90;;;;;;;-5.97;72.18;97856.16;1684002;85;21257;-67
2021/01/30 06:20:22;;;;;;;41.15;22.07;;;;;;;-5.89;72.16;97852.04;1693594;84;21166;-66
2021/01/30 06:23:09;;;;;;;42.73;21.02;;;;;;;-5.86;72.24;97844.66;1683808;85;21163;-67
2021/01/30 06:25:40;;;;;;;31.73;15.55;;;;;;;-5.80;72.34;97841.88;1684081;85;21167;-66
2021/01/30 06:28:31;;;;;;;47.23;20.23;;;;;;;-5.76;72.55;97842.98;1683856;85;21175;-66
2021/01/30 06:31:19;;;;;;;38.98;19.82;;;;;;;-5.68;72.63;97840.59;1683835;85;21341;-68
2021/01/30 06:33:51;;;;;;;32.10;16.25;;;;;;;-5.58;72.61;97835.51;1684054;85;21206;-68
2021/01/30 06:36:27;;;;;;;31.97;17.17;;;;;;;-5.54;72.67;97831.09;1683871;85;21226;-68
2021/01/30 06:39:12;;;;;;;30.85;16.15;;;;;;;-5.47;72.76;97839.00;1684077;85;21501;-68
2021/01/30 06:41:41;;;;;;;27.93;15.43;;;;;;;-5.40;72.76;97835.75;1679269;85;21356;-68
2021/01/30 06:44:22;;;;;;;30.37;15.38;;;;;;;-5.33;72.71;97833.32;1685770;85;21298;-68
2021/01/30 06:47:15;;;;;;;26.35;13.62;;;;;;;-5.24;72.67;97823.98;1650269;87;21560;-68
2021/01/30 06:49:52;;;;;;;35.58;18.30;;;;;;;-5.06;72.72;97813.86;1777949;79;23589;-67
2021/01/30 06:52:26;;;;;;;39.30;18.50;;;;;;;-5.08;72.83;97809.23;1745661;82;21626;-68
2021/01/30 06:55:10;;;;;;;43.68;22.87;;;;;;;-4.95;72.75;97808.70;1723328;83;21305;-68
2021/01/30 06:57:43;;;;;;;40.40;21.52;;;;;;;-4.82;72.74;97814.66;1708979;83;21166;-68
2021/01/30 07:03:20;;;;;;;43.83;25.75;;;;;;;-4.57;72.45;97804.21;1764251;79;28225;-66
2021/01/30 07:05:56;;;;;;;46.83;22.85;;;;;;;-4.39;72.05;97797.45;1752361;82;21206;-66
2021/01/30 07:08:48;;;;;;;42.90;22.25;;;;;;;-4.13;71.30;97789.94;1741350;82;21317;-67
2021/01/30 07:11:45;;;;;;;46.80;22.73;;;;;;;-4.08;71.22;97793.59;1707411;83;21199;-67
2021/01/30 07:14:42;;;;;;;43.65;22.45;;;;;;;-3.97;71.12;97786.23;1722979;83;21337;-67
2021/01/30 07:17:21;;;;;;;42.48;20.10;;;;;;;-3.89;70.53;97787.19;1741037;82;21167;-67
2021/01/30 07:20:06;;;;;;;43.02;18.60;;;;;;;-3.90;70.71;97797.16;1752175;82;21163;-67
2021/01/30 07:22:57;;;;;;;85.60;29.92;;;;;;;-3.88;70.81;97786.30;1753434;81;21143;-68
2021/01/30 07:25:32;;;;;;;38.58;18.65;;;;;;;-3.92;71.15;97788.63;1751249;82;21245;-68
2021/01/30 07:28:05;;;;;;;35.23;17.80;;;;;;;-3.88;70.99;97790.63;1751190;82;21583;-68
2021/01/30 07:30:49;;;;;;;38.25;20.27;;;;;;;-3.82;71.01;97796.83;1753234;82;21639;-68
2021/01/30 07:33:20;;;;;;;;;;;;;;;-3.78;71.31;97803.53;1755927;82;21190;-67
2021/01/30 07:35:59;;;;;;;30.92;16.57;;;;;;;-3.72;71.38;97790.79;1752093;82;20296;-67
2021/01/30 07:38:44;;;;;;;25.48;14.30;;;;;;;-3.64;71.39;97790.02;1753230;81;21155;-67
2021/01/30 07:41:30;;;;;;;28.15;14.83;;;;;;;-3.55;71.24;97793.48;1812117;79;22951;-68
2021/01/30 07:44:14;;;;;;;25.55;14.18;;;;;;;-3.51;70.98;97791.13;1783051;80;21757;-67
2021/01/30 07:46:45;;;;;;;31.27;15.90;;;;;;;-3.47;71.21;97800.89;1781903;80;21553;-67
2021/01/30 07:49:18;;;;;;;39.60;21.45;;;;;;;-3.32;71.00;97807.13;1777978;80;21158;-68
2021/01/30 07:51:54;;;;;;;49.38;27.10;;;;;;;-3.29;71.18;97803.09;1758797;80;21538;-67
2021/01/30 07:54:21;;;;;;;33.48;18.73;;;;;;;-3.24;71.01;97807.60;1760612;80;21181;-68
2021/01/30 07:57:13;;;;;;;28.62;16.17;;;;;;;-3.24;71.04;97811.48;1781382;80;21296;-68
2021/01/30 07:59:57;;;;;;;25.20;13.50;;;;;;;-3.18;70.85;97811.20;1777710;80;21110;-68
2021/01/30 08:03:07;;;;;;;35.95;18.25;;;;;;;-3.18;70.83;97815.09;1768910;80;21160;-68
2021/01/30 08:05:42;;;;;;;30.92;17.20;;;;;;;-3.18;70.83;97821.55;1771834;80;21570;-67
2021/01/30 08:08:32;;;;;;;30.95;16.85;;;;;;;-3.07;70.90;97811.16;1821009;77;22853;-67
2021/01/30 08:11:26;;;;;;;29.25;15.13;;;;;;;-3.05;70.86;97819.23;1792147;80;21199;-67
2021/01/30 08:14:19;;;;;;;24.75;13.28;;;;;;;-3.02;70.79;97813.09;1792755;78;21183;-68
2021/01/30 08:17:27;;;;;;;24.15;14.45;;;;;;;-2.99;70.61;97810.38;1698081;81;21167;-68
2021/01/30 08:20:02;;;;;;;22.48;13.10;;;;;;;-3.05;70.69;97808.06;1742927;81;21147;-68
2021/01/30 08:22:38;;;;;;;26.35;12.63;;;;;;;-3.04;70.78;97798.11;1734158;81;21575;-68
2021/01/30 08:25:11;;;;;;;29.15;15.28;;;;;;;-2.99;70.67;97801.33;1749685;81;21573;-67
2021/01/30 08:27:41;;;;;;;88.17;32.77;;;;;;;-2.95;70.79;97800.27;1712702;81;21333;-67
2021/01/30 08:30:21;;;;;;;106.35;34.27;;;;;;;-2.88;70.73;97797.75;1695763;81;21422;-68
2021/01/30 08:33:01;;;;;;;129.78;37.58;;;;;;;-2.72;70.38;97795.30;1702113;83;21151;-68
2021/01/30 08:35:36;;;;;;;245.67;86.45;;;;;;;-2.67;70.25;97798.50;1716442;81;21143;-68
2021/01/30 08:38:21;;;;;;;131.10;42.03;;;;;;;-2.57;69.97;97800.20;1754126;81;21155;-68
2021/01/30 08:40:55;;;;;;;56.42;22.73;;;;;;;-2.51;70.03;97800.34;1751556;80;21174;-68
2021/01/30 08:43:40;;;;;;;25.65;13.50;;;;;;;-2.41;69.81;97808.52;1744094;81;21185;-69
2021/01/30 08:46:34;;;;;;;23.02;13.62;;;;;;;-2.30;69.34;97798.47;1732257;81;21153;-68
2021/01/30 08:49:20;;;;;;;32.98;15.70;;;;;;;-2.25;68.87;97796.93;1747836;81;21143;-68
2021/01/30 08:51:52;;;;;;;58.92;24.32;;;;;;;-2.20;68.80;97801.42;1747189;81;21632;-67
2021/01/30 08:54:36;;;;;;;67.55;25.68;;;;;;;-2.18;68.89;97808.20;1689742;81;21747;-68
2021/01/30 08:57:05;;;;;;;24.37;14.50;;;;;;;-2.22;69.01;97804.56;1750800;81;21155;-68
2021/01/30 08:59:50;;;;;;;21.77;12.35;;;;;;;-2.23;68.85;97805.00;1714787;81;21229;-68
2021/01/30 09:02:35;;;;;;;24.63;12.47;;;;;;;-2.30;69.19;97801.06;1719963;83;21313;-68
2021/01/30 09:05:21;;;;;;;24.77;14.20;;;;;;;-2.27;69.15;97802.19;1729281;81;21147;-68
2021/01/30 09:07:58;;;;;;;23.50;14.38;;;;;;;-2.34;69.34;97800.80;1722901;81;21629;-69
2021/01/30 09:10:38;;;;;;;30.17;17.27;;;;;;;-2.40;69.75;97790.31;1715410;83;21535;-69
2021/01/30 09:13:14;;;;;;;26.87;16.00;;;;;;;-2.39;70.06;97785.52;1732539;82;21620;-69
2021/01/30 09:15:47;;;;;;;27.15;14.65;;;;;;;-2.36;70.33;97794.41;1700033;83;21620;-69
2021/01/30 09:18:35;;;;;;;22.93;13.15;;;;;;;-2.31;70.34;97790.31;1700836;83;21181;-69
2021/01/30 09:21:14;;;;;;;26.65;15.53;;;;;;;-2.36;70.52;97796.18;1717001;83;21176;-69
2021/01/30 09:23:50;;;;;;;31.62;16.80;;;;;;;-2.34;70.45;97796.92;1707095;82;21132;-69
2021/01/30 09:26:50;;;;;;;42.35;24.75;;;;;;;-2.40;70.56;97783.02;1707639;83;21109;-67
2021/01/30 09:29:29;;;;;;;30.08;16.23;;;;;;;-2.41;70.66;97782.63;1771351;80;21171;-68
2021/01/30 09:31:56;;;;;;;19.70;11.30;;;;;;;-2.42;70.64;97784.83;1771931;80;21154;-68
2021/01/30 09:34:26;;;;;;;19.85;11.05;;;;;;;-2.40;70.47;97777.83;1744697;81;21147;-67
2021/01/30 09:36:54;;;;;;;23.65;13.22;;;;;;;-2.40;70.55;97770.89;1770546;80;21127;-67
2021/01/30 09:39:34;;;;;;;25.50;14.07;;;;;;;-2.48;70.77;97775.16;1796237;80;21192;-67
2021/01/30 09:42:19;;;;;;;26.97;14.38;;;;;;;-2.48;70.96;97769.98;1782513;79;21138;-68
2021/01/30 09:45:05;;;;;;;28.87;16.62;;;;;;;-2.47;71.16;97758.72;1797313;79;21566;-68
2021/01/30 09:47:33;;;;;;;24.67;14.33;;;;;;;-2.39;70.70;97762.66;1803505;78;21182;-68
2021/01/30 09:50:09;;;;;;;26.50;15.40;;;;;;;-2.38;70.70;97757.86;1796027;80;21091;-68
2021/01/30 09:52:36;;;;;;;27.20;15.48;;;;;;;-2.36;70.38;97750.88;1775539;80;21257;-68
2021/01/30 09:55:12;;;;;;;26.23;14.60;;;;;;;-2.39;70.12;97743.24;1788049;80;21158;-68
2021/01/30 09:57:39;;;;;;;22.65;14.43;;;;;;;-2.42;70.53;97748.58;1786850;80;21174;-69
2021/01/30 10:00:14;;;;;;;26.25;14.43;;;;;;;-2.43;70.71;97737.41;1793988;80;21083;-68
2021/01/30 10:02:41;;;;;;;26.37;14.73;;;;;;;-2.49;70.99;97733.82;1792972;80;21189;-69
2021/01/30 10:05:14;;;;;;;28.12;15.05;;;;;;;-2.48;71.13;97728.56;1769186;80;21162;-68
2021/01/30 10:07:42;;;;;;;24.15;12.33;;;;;;;-2.50;71.13;97730.37;1777446;80;21107;-68
2021/01/30 10:10:25;;;;;;;30.20;16.10;;;;;;;-2.50;71.39;97727.79;1787924;80;21146;-68
2021/01/30 10:12:54;;;;;;;;;;;;;;;-2.48;71.52;97722.56;1788603;80;21118;-68
2021/01/30 10:15:34;;;;;;;21.80;12.82;;;;;;;-2.48;71.60;97722.09;1783231;80;20163;-68
2021/01/30 10:18:14;;;;;;;21.55;13.35;;;;;;;-2.47;71.71;97721.18;1797134;80;21171;-69
2021/01/30 10:20:52;;;;;;;19.75;12.47;;;;;;;-2.44;71.86;97710.27;1784975;80;21127;-68
2021/01/30 10:23:42;;;;;;;22.82;13.40;;;;;;;-2.37;71.88;97700.00;1796124;80;21134;-68
2021/01/30 10:26:21;;;;;;;25.43;14.68;;;;;;;-2.28;71.68;97711.17;1783157;80;21173;-68
2021/01/30 10:28:53;;;;;;;22.70;13.08;;;;;;;-2.27;71.54;97692.61;1788056;80;21135;-69
2021/01/30 10:31:25;;;;;;;93.97;48.28;;;;;;;-2.28;72.17;97689.64;1762404;80;21158;-68
2021/01/30 10:34:04;;;;;;;21.73;12.88;;;;;;;-2.24;72.12;97691.15;1765862;80;21135;-70
2021/01/30 10:36:32;;;;;;;17.57;10.60;;;;;;;-2.27;72.30;97694.73;1757199;80;21190;-69
2021/01/30 10:38:59;;;;;;;20.50;11.85;;;;;;;-2.32;72.35;97687.19;1772891;80;21154;-69
2021/01/30 10:41:27;;;;;;;19.32;12.03;;;;;;;-2.33;72.82;97682.95;1770382;80;21155;-69
2021/01/30 10:44:02;;;;;;;21.50;12.40;;;;;;;-2.36;73.06;97680.97;1764630;80;21706;-70
2021/01/30 10:46:40;;;;;;;25.05;12.55;;;;;;;-2.32;73.06;97683.30;1769344;80;21682;-69
2021/01/30 10:49:18;;;;;;;30.02;13.08;;;;;;;-2.25;73.59;97676.52;1775009;80;21293;-68
2021/01/30 10:51:45;;;;;;;23.83;12.85;;;;;;;-2.19;73.17;97671.86;1790979;77;21186;-69
2021/01/30 10:54:22;;;;;;;23.25;12.68;;;;;;;-2.13;73.39;97668.59;1811278;78;21590;-70
2021/01/30 10:57:19;;;;;;;24.18;13.62;;;;;;;-2.09;73.57;97655.39;1804338;78;21305;-69
2021/01/30 11:00:02;;;;;;;24.10;14.70;;;;;;;-2.06;73.01;97656.98;1796751;80;21206;-69
2021/01/30 11:02:42;;;;;;;23.47;13.18;;;;;;;-2.10;73.10;97640.77;1797146;80;21311;-68
2021/01/30 11:05:24;;;;;;;24.20;13.62;;;;;;;-2.03;72.73;97642.59;1796907;80;21139;-68
2021/01/30 11:11:12;;;;;;;29.07;16.00;;;;;;;-1.96;72.78;97624.48;1786863;80;22983;-69
2021/01/30 11:13:40;;;;;;;26.55;14.78;;;;;;;-1.95;72.70;97619.69;1761449;81;21210;-69
2021/01/30 11:16:38;;;;;;;30.77;17.15;;;;;;;-1.93;72.36;97620.45;1761312;81;21663;-69
2021/01/30 11:19:29;;;;;;;27.82;15.28;;;;;;;-1.92;72.47;97611.74;1761411;81;21313;-68
2021/01/30 11:22:23;;;;;;;30.40;15.53;;;;;;;-1.93;72.19;97613.98;1760012;81;21321;-69
2021/01/30 11:25:11;;;;;;;27.40;15.70;;;;;;;-1.94;72.14;97599.34;1761368;81;21269;-70
2021/01/30 11:27:49;;;;;;;26.50;15.68;;;;;;;-1.92;72.15;97595.38;1761314;81;22213;-71
2021/01/30 11:30:24;;;;;;;28.30;15.53;;;;;;;-1.96;72.26;97581.75;1761332;81;21579;-70
2021/01/30 11:33:01;;;;;;;25.25;14.85;;;;;;;-1.91;72.42;97577.15;1760481;81;21182;-69
2021/01/30 11:35:33;;;;;;;29.77;16.57;;;;;;;-1.93;72.38;97565.20;1761598;81;21305;-70
2021/01/30 11:38:09;;;;;;;21.52;12.70;;;;;;;-1.87;72.54;97577.35;1761355;81;21170;-70
2021/01/30 11:40:36;;;;;;;21.77;11.97;;;;;;;-1.86;71.95;97575.61;1761625;81;21147;-70
2021/01/30 11:43:05;;;;;;;20.65;11.68;;;;;;;-1.91;71.85;97564.20;1761485;81;21590;-70
2021/01/30 11:45:32;;;;;;;26.12;13.05;;;;;;;-1.93;72.22;97558.72;1761442;81;21182;-70
2021/01/30 11:47:59;;;;;;;21.52;12.10;;;;;;;-1.98;72.61;97560.28;1761375;81;21155;-70
2021/01/30 11:50:27;;;;;;;20.05;11.55;;;;;;;-1.93;72.26;97550.95;1761224;81;21163;-70
2021/01/30 11:53:10;;;;;;;19.92;11.70;;;;;;;-1.98;72.15;97542.98;1761316;81;21158;-70
2021/01/30 11:55:39;;;;;;;16.85;10.45;;;;;;;-1.94;72.09;97538.47;1761323;81;21182;-69
2021/01/30 11:58:06;;;;;;;22.02;12.43;;;;;;;-2.04;72.17;97542.48;1761480;81;21126;-68
2021/01/30 12:00:33;;;;;;;19.60;11.38;;;;;;;-2.02;72.26;97532.41;1761246;81;21186;-68
2021/01/30 12:03:03;;;;;;;24.47;13.72;;;;;;;-2.01;72.57;97530.20;1761520;81;21618;-68
2021/01/30 12:05:31;;;;;;;26.37;13.48;;;;;;;-1.91;72.52;97529.22;1761574;81;21655;-68
2021/01/30 12:07:59;;;;;;;26.73;14.63;;;;;;;-1.89;72.45;97523.50;1761511;81;21603;-68